Time;durP1;ratioP1;P1;durP2;ratioP2;P2;SDS_P1;SDS_P2;PMS_P1;PMS_P2;Temp;Humidity;BMP_temperature;BMP_pressure;BME280_temperature;BME280_humidity;BME280_pressure;Samples;Min_cycle;Max_cycle;Signal;HPM_P1;HPM_P2
2021/12/19 00:04:27;;;;;;;22.27;13.00;;;;;;;19.92;27.73;98711.97;5009077;28;20061;-80
2021/12/19 00:09:38;;;;;;;20.20;11.38;;;;;;;19.50;28.81;98725.66;5007223;28;20464;-80
2021/12/19 00:12:05;;;;;;;16.30;10.05;;;;;;;19.79;28.43;98724.63;5007361;28;20068;-80
2021/12/19 00:14:31;;;;;;;19.45;12.00;;;;;;;20.67;26.80;98710.28;5010521;28;20048;-80
2021/12/19 00:16:58;;;;;;;17.08;10.85;;;;;;;20.17;27.56;98717.66;5010226;28;20061;-80
2021/12/19 00:19:24;;;;;;;18.42;11.65;;;;;;;18.82;29.81;98701.22;5011004;28;20490;-80
2021/12/19 00:21:50;;;;;;;22.98;11.70;;;;;;;18.80;29.71;98688.88;5007093;28;20477;-79
2021/12/19 00:24:16;;;;;;;20.52;11.80;;;;;;;19.37;28.71;98701.31;5012425;28;20029;-80
2021/12/19 00:26:43;;;;;;;18.80;10.95;;;;;;;19.86;28.15;98699.59;5008851;28;20033;-80
2021/12/19 00:29:09;;;;;;;15.63;9.27;;;;;;;19.89;28.24;98698.81;5010874;28;20413;-80
2021/12/19 00:31:37;;;;;;;16.05;9.90;;;;;;;19.80;28.24;98698.38;5003661;28;20402;-80
2021/12/19 00:34:04;;;;;;;17.95;10.43;;;;;;;19.40;28.88;98706.06;5011110;28;20064;-80
2021/12/19 00:36:30;;;;;;;19.67;10.05;;;;;;;19.76;28.71;98702.34;5006809;28;20126;-80
2021/12/19 00:38:57;;;;;;;14.80;10.27;;;;;;;19.42;28.63;98701.72;5007268;28;20072;-80
2021/12/19 00:41:24;;;;;;;21.20;11.20;;;;;;;19.76;28.11;98708.72;5009706;28;20474;-80
2021/12/19 00:44:07;;;;;;;19.42;12.13;;;;;;;18.77;29.63;98686.84;5007435;28;20073;-80
2021/12/19 00:46:43;;;;;;;19.45;11.20;;;;;;;18.35;30.43;98699.13;5011132;28;20041;-80
2021/12/19 00:49:10;;;;;;;17.63;9.68;;;;;;;19.57;28.49;98689.50;5011219;28;20045;-80
2021/12/19 00:51:36;;;;;;;18.35;10.40;;;;;;;18.74;29.77;98699.56;5010260;28;20398;-80
2021/12/19 00:54:04;;;;;;;16.40;9.40;;;;;;;18.68;29.58;98708.63;5011771;28;20022;-80
2021/12/19 00:56:30;;;;;;;16.58;9.98;;;;;;;18.45;30.03;98695.72;5011008;28;20034;-80
2021/12/19 00:58:56;;;;;;;18.17;10.48;;;;;;;19.50;28.19;98691.44;5012068;28;20054;-80
2021/12/19 01:01:22;;;;;;;17.70;10.13;;;;;;;19.42;28.38;98690.59;5010825;28;20042;-80
2021/12/19 01:03:48;;;;;;;18.15;9.85;;;;;;;18.94;28.98;98691.78;5010402;28;20030;-80
2021/12/19 01:06:19;;;;;;;20.02;11.40;;;;;;;18.59;29.59;98692.25;5007012;28;20050;-80
2021/12/19 01:08:46;;;;;;;13.02;8.52;;;;;;;18.30;30.37;98704.22;5009317;28;20085;-80
2021/12/19 01:11:12;;;;;;;12.82;8.32;;;;;;;18.69;29.63;98699.94;5005525;28;20039;-80
2021/12/19 01:13:38;;;;;;;14.05;8.27;;;;;;;19.68;27.87;98679.22;5003474;28;20040;-80
2021/12/19 01:16:04;;;;;;;11.65;7.47;;;;;;;20.21;26.86;98668.28;5008500;28;20424;-80
2021/12/19 01:18:30;;;;;;;11.25;7.28;;;;;;;20.18;26.80;98663.50;5000212;28;20034;-80
2021/12/19 01:20:57;;;;;;;12.07;7.55;;;;;;;20.77;26.09;98664.81;5006243;28;20041;-80
2021/12/19 01:23:23;;;;;;;9.57;6.68;;;;;;;20.23;26.90;98665.94;5007890;28;20504;-80
2021/12/19 01:25:52;;;;;;;12.48;7.60;;;;;;;18.85;28.78;98649.59;5024196;28;20489;-80
2021/12/19 01:28:18;;;;;;;10.68;6.72;;;;;;;19.53;27.58;98630.19;5013847;28;20088;-80
2021/12/19 01:30:45;;;;;;;9.27;6.20;;;;;;;20.44;26.49;98629.72;5014225;28;20034;-80
2021/12/19 01:33:12;;;;;;;10.88;6.43;;;;;;;20.22;26.54;98627.28;5010939;28;20026;-80
2021/12/19 01:35:38;;;;;;;8.95;5.78;;;;;;;20.62;26.29;98624.16;5010441;28;20038;-80
2021/12/19 01:38:04;;;;;;;9.55;5.80;;;;;;;20.49;26.56;98622.97;5013152;28;20041;-80
2021/12/19 01:40:30;;;;;;;8.73;5.57;;;;;;;20.19;27.04;98612.09;5012282;28;20064;-80
2021/12/19 01:42:58;;;;;;;9.57;5.60;;;;;;;19.94;27.27;98605.69;5014853;28;20105;-80
2021/12/19 01:45:26;;;;;;;8.30;5.55;;;;;;;21.03;25.83;98597.44;5013712;28;20029;-80
2021/12/19 01:47:53;;;;;;;11.23;6.10;;;;;;;20.30;26.58;98584.28;5010785;28;20041;-80
2021/12/19 01:50:19;;;;;;;9.07;5.70;;;;;;;20.14;27.15;98581.06;5010217;28;20041;-80
2021/12/19 01:52:47;;;;;;;9.75;5.35;;;;;;;20.90;26.04;98579.50;5009545;28;20042;-80
2021/12/19 01:55:13;;;;;;;9.95;6.15;;;;;;;19.66;27.59;98561.00;5012275;28;20037;-80
2021/12/19 01:57:39;;;;;;;8.85;5.95;;;;;;;20.21;26.91;98551.16;5010442;28;20572;-80
2021/12/19 02:00:16;;;;;;;10.20;5.97;;;;;;;20.72;26.11;98550.03;5012191;28;20477;-80
2021/12/19 02:02:42;;;;;;;8.40;6.00;;;;;;;21.11;25.62;98557.16;5012664;28;20555;-80
2021/12/19 02:05:08;;;;;;;10.13;5.95;;;;;;;22.08;24.31;98534.00;5012387;28;20034;-80
2021/12/19 02:07:34;;;;;;;10.98;6.18;;;;;;;20.77;25.96;98539.25;5009009;28;20042;-80
2021/12/19 02:10:03;;;;;;;7.95;4.88;;;;;;;21.60;24.92;98531.06;5012514;28;20057;-80
2021/12/19 02:12:29;;;;;;;10.77;5.05;;;;;;;22.30;24.05;98513.06;5008641;28;20481;-80
2021/12/19 02:14:55;;;;;;;4.95;4.15;;;;;;;21.49;24.97;98526.72;5011251;28;20022;-80
2021/12/19 02:17:21;;;;;;;7.15;4.78;;;;;;;20.41;26.64;98544.06;5012913;28;20494;-80
2021/12/19 02:19:50;;;;;;;10.00;4.97;;;;;;;21.56;25.05;98529.47;5021561;28;20037;-80
2021/12/19 02:22:16;;;;;;;11.18;5.15;;;;;;;21.80;24.60;98525.75;5012713;28;20034;-80
2021/12/19 02:24:42;;;;;;;6.03;4.03;;;;;;;22.88;23.20;98525.38;5010716;28;20394;-80
2021/12/19 02:27:08;;;;;;;8.10;5.43;;;;;;;21.86;24.36;98535.34;5007853;28;20030;-80
2021/12/19 02:29:34;;;;;;;7.22;4.38;;;;;;;21.58;24.82;98525.09;5011311;28;20049;-80
2021/12/19 02:32:02;;;;;;;7.07;4.90;;;;;;;21.79;24.47;98518.59;5010742;28;20112;-80
2021/12/19 02:34:31;;;;;;;8.13;4.70;;;;;;;20.07;27.05;98520.50;5012591;28;20096;-80
2021/12/19 02:37:05;;;;;;;6.28;4.50;;;;;;;19.97;27.17;98529.66;5012406;28;20053;-80
2021/12/19 02:39:54;;;;;;;6.13;3.88;;;;;;;21.16;25.68;98523.25;5010717;28;20049;-80
2021/12/19 02:50:50;;;;;;;5.88;4.03;;;;;;;21.59;25.14;98484.75;5004497;28;20486;-80
2021/12/19 02:53:26;;;;;;;6.15;3.45;;;;;;;23.02;23.47;98469.22;5006933;28;20367;-80
2021/12/19 02:55:52;;;;;;;4.85;3.15;;;;;;;20.97;25.88;98467.84;5008109;28;20040;-80
2021/12/19 02:58:18;;;;;;;5.03;3.47;;;;;;;21.86;25.00;98429.13;5007519;28;20048;-80
2021/12/19 03:00:44;;;;;;;4.15;2.90;;;;;;;21.02;26.15;98453.47;5011085;28;20038;-80
2021/12/19 03:03:11;;;;;;;3.72;2.95;;;;;;;20.53;26.63;98448.03;5009448;28;20030;-80
2021/12/19 03:05:37;;;;;;;3.53;2.72;;;;;;;21.58;25.60;98434.88;5008329;28;20061;-81
2021/12/19 03:08:06;;;;;;;4.10;3.10;;;;;;;22.57;24.03;98438.47;5004909;28;20037;-80
2021/12/19 03:11:16;;;;;;;6.25;3.17;;;;;;;21.31;25.69;98435.41;5006169;28;20116;-80
2021/12/19 03:17:56;;;;;;;3.90;2.92;;;;;;;20.96;26.28;98432.75;5008061;28;20405;-80
2021/12/19 03:19:04;;;;;;;4.43;2.58;;;;;;;19.14;28.93;98423.16;5009310;28;20124;-80
2021/12/19 03:21:30;;;;;;;5.75;3.22;;;;;;;19.19;28.60;98411.66;5007429;28;20030;-80
2021/12/19 03:23:56;;;;;;;6.38;3.95;;;;;;;18.46;29.90;98412.94;5004244;28;20034;-80
2021/12/19 03:26:22;;;;;;;4.82;2.88;;;;;;;19.67;28.60;98401.84;5005171;28;20106;-80
2021/12/19 03:28:49;;;;;;;5.07;3.50;;;;;;;20.56;26.56;98399.81;5006934;28;20041;-81
2021/12/19 03:31:15;;;;;;;4.07;3.13;;;;;;;21.10;26.00;98373.28;5021476;28;20031;-80
2021/12/19 03:33:41;;;;;;;5.35;3.45;;;;;;;21.20;25.89;98380.81;5006714;28;20032;-80
2021/12/19 03:36:09;;;;;;;6.78;3.85;;;;;;;21.77;25.19;98370.06;5009618;28;20487;-80
2021/12/19 03:38:40;;;;;;;4.53;3.13;;;;;;;20.33;27.04;98363.19;5012438;28;20057;-80
2021/12/19 03:41:33;;;;;;;5.65;2.92;;;;;;;20.34;27.53;98362.00;5010555;28;20440;-80
2021/12/19 03:43:56;;;;;;;5.03;3.33;;;;;;;19.67;28.31;98345.34;5007974;28;20026;-80
2021/12/19 03:46:22;;;;;;;4.10;2.90;;;;;;;21.02;26.70;98333.44;5009075;28;20040;-80
2021/12/19 03:48:48;;;;;;;5.53;2.85;;;;;;;20.36;26.80;98329.72;5012643;28;20038;-81
2021/12/19 03:51:14;;;;;;;2.95;2.03;;;;;;;21.67;25.58;98335.41;5012466;28;20065;-80
2021/12/19 03:53:40;;;;;;;3.80;2.65;;;;;;;21.84;25.10;98328.88;5011890;28;20500;-80
2021/12/19 03:56:06;;;;;;;2.97;2.33;;;;;;;20.02;27.72;98319.44;5008761;28;20033;-80
2021/12/19 03:58:32;;;;;;;4.65;3.22;;;;;;;18.85;29.48;98312.97;5010609;28;20112;-80
2021/12/19 04:01:00;;;;;;;4.20;2.33;;;;;;;19.69;28.30;98304.75;5011032;28;20516;-80
2021/12/19 04:03:29;;;;;;;4.53;2.80;;;;;;;19.57;28.58;98296.00;5010601;28;20413;-80
2021/12/19 04:05:55;;;;;;;5.65;2.08;;;;;;;19.85;28.36;98312.69;5009215;28;20503;-81
2021/12/19 04:08:21;;;;;;;3.45;2.35;;;;;;;19.69;28.35;98307.53;5007970;28;20032;-80
2021/12/19 04:10:50;;;;;;;4.50;2.58;;;;;;;19.42;28.79;98297.97;5009175;28;20041;-80
2021/12/19 04:13:17;;;;;;;3.47;2.53;;;;;;;19.62;28.29;98295.59;5011399;28;20112;-81
2021/12/19 04:15:44;;;;;;;3.25;2.30;;;;;;;19.07;29.25;98295.13;5012060;28;20036;-80
2021/12/19 04:18:10;;;;;;;3.28;2.03;;;;;;;20.26;27.61;98283.16;5011016;28;20375;-80
2021/12/19 04:20:36;;;;;;;2.90;2.38;;;;;;;19.42;28.84;98281.25;5010869;28;20034;-80
2021/12/19 04:23:03;;;;;;;4.25;2.55;;;;;;;19.73;27.81;98263.75;5008457;28;20067;-80
2021/12/19 04:25:29;;;;;;;4.63;3.17;;;;;;;20.16;27.36;98270.03;5008845;28;20033;-80
2021/12/19 04:27:55;;;;;;;5.88;2.58;;;;;;;18.87;29.18;98272.44;5012404;28;20042;-80
2021/12/19 04:30:25;;;;;;;3.92;2.42;;;;;;;19.85;28.37;98274.47;5009474;28;20497;-80
2021/12/19 04:33:02;;;;;;;6.22;3.38;;;;;;;20.30;27.36;98266.41;5012486;28;20040;-80
2021/12/19 04:35:32;;;;;;;6.03;4.05;;;;;;;20.65;26.70;98266.25;5011127;28;20041;-80
2021/12/19 04:40:54;;;;;;;3.72;1.88;;;;;;;20.04;27.04;98228.66;5005646;28;20038;-80
2021/12/19 04:57:20;;;;;;;2.40;1.50;;;;;;;21.55;25.50;98215.75;5006957;28;20069;-80
2021/12/19 05:02:36;;;;;;;3.13;1.80;;;;;;;20.48;26.83;98209.38;5012978;28;20034;-80
2021/12/19 05:15:49;;;;;;;2.80;1.65;;;;;;;20.78;26.06;98222.72;5010161;28;20133;-80
2021/12/19 05:18:16;;;;;;;1.38;1.27;;;;;;;19.65;27.79;98223.16;5007605;28;20589;-80
2021/12/19 05:20:52;;;;;;;2.33;1.48;;;;;;;19.64;28.25;98234.72;5010689;28;20384;-80
2021/12/19 05:23:32;;;;;;;2.60;1.63;;;;;;;20.81;26.39;98216.34;5014695;28;20470;-80
2021/12/19 05:26:02;;;;;;;1.85;1.55;;;;;;;19.98;27.21;98203.16;5011505;28;20504;-80
2021/12/19 05:28:28;;;;;;;3.22;1.63;;;;;;;21.45;25.61;98213.84;5013690;28;20394;-80
2021/12/19 05:30:55;;;;;;;1.73;1.52;;;;;;;19.60;28.09;98203.28;5012546;28;20034;-81
2021/12/19 05:33:21;;;;;;;1.67;1.40;;;;;;;20.29;27.09;98214.63;5013631;28;20022;-80
2021/12/19 05:36:10;;;;;;;1.90;1.50;;;;;;;19.86;27.98;98211.19;5011269;28;20037;-80
2021/12/19 05:46:52;;;;;;;2.53;1.92;;;;;;;18.32;30.48;98177.31;5010399;28;20057;-80
2021/12/19 05:49:18;;;;;;;2.75;1.92;;;;;;;18.48;29.82;98177.78;5013415;28;20069;-80
2021/12/19 05:51:44;;;;;;;1.70;1.58;;;;;;;18.74;29.76;98190.53;5008096;28;20041;-80
2021/12/19 05:54:11;;;;;;;2.35;1.40;;;;;;;19.03;29.55;98192.16;5013248;28;20029;-80
2021/12/19 05:56:37;;;;;;;2.20;2.00;;;;;;;18.49;29.84;98164.69;5014959;28;20072;-80
2021/12/19 05:59:03;;;;;;;2.25;1.90;;;;;;;19.63;28.28;98180.19;5008849;28;20030;-80
2021/12/19 06:01:29;;;;;;;2.78;1.90;;;;;;;20.19;27.96;98162.47;5013784;28;20037;-79
2021/12/19 06:03:55;;;;;;;2.88;2.25;;;;;;;20.50;26.98;98181.06;5008919;28;20034;-80
2021/12/19 06:06:26;;;;;;;3.58;2.28;;;;;;;18.90;29.13;98173.50;5011326;28;20050;-79
2021/12/19 06:08:54;;;;;;;4.13;2.08;;;;;;;19.27;28.54;98187.78;5011989;28;20104;-79
2021/12/19 06:11:20;;;;;;;2.78;1.88;;;;;;;19.21;28.84;98192.97;5012840;28;20038;-79
2021/12/19 06:13:47;;;;;;;3.20;2.28;;;;;;;19.84;27.76;98191.28;5005872;28;20570;-80
2021/12/19 06:16:13;;;;;;;2.75;1.95;;;;;;;20.25;27.21;98186.78;5010579;28;20057;-79
2021/12/19 06:18:39;;;;;;;3.55;1.90;;;;;;;21.21;26.06;98170.22;5006234;28;20039;-80
2021/12/19 06:21:06;;;;;;;5.10;2.30;;;;;;;20.11;27.22;98183.22;5009998;28;20038;-80
2021/12/19 06:23:33;;;;;;;3.22;2.13;;;;;;;21.27;25.76;98182.50;5004338;28;20034;-80
2021/12/19 06:25:59;;;;;;;4.80;2.63;;;;;;;20.34;26.47;98177.97;5003514;28;20026;-80
2021/12/19 06:28:26;;;;;;;3.13;2.47;;;;;;;21.01;25.78;98171.91;5009648;28;20482;-80
2021/12/19 06:30:52;;;;;;;8.43;5.10;;;;;;;21.94;24.64;98173.44;5005789;28;20029;-80
2021/12/19 06:33:18;;;;;;;3.42;2.50;;;;;;;21.08;25.49;98158.72;5012278;28;20112;-80
2021/12/19 06:35:44;;;;;;;4.70;3.28;;;;;;;19.33;27.81;98155.56;5010623;28;20038;-80
2021/12/19 06:38:12;;;;;;;3.47;2.40;;;;;;;18.89;28.93;98144.06;5012158;28;20101;-80
2021/12/19 06:40:38;;;;;;;3.65;3.08;;;;;;;20.09;27.41;98143.81;5012558;28;20026;-79
2021/12/19 06:43:04;;;;;;;5.85;2.97;;;;;;;20.26;26.80;98140.94;5011431;28;20030;-80
2021/12/19 06:45:30;;;;;;;2.78;2.45;;;;;;;18.58;29.16;98145.63;5013065;28;20029;-79
2021/12/19 06:47:56;;;;;;;3.22;2.10;;;;;;;18.06;30.36;98169.34;5009747;28;20492;-80
2021/12/19 06:50:24;;;;;;;2.80;2.55;;;;;;;18.90;28.48;98142.88;5009175;28;20516;-79
2021/12/19 06:52:50;;;;;;;3.92;2.13;;;;;;;18.66;29.02;98138.09;5005822;28;20025;-80
2021/12/19 06:55:17;;;;;;;3.70;2.85;;;;;;;18.46;29.21;98135.69;5010416;28;20034;-80
2021/12/19 06:57:44;;;;;;;4.70;2.50;;;;;;;18.36;29.54;98130.91;5011235;28;20034;-79
2021/12/19 07:00:22;;;;;;;2.88;2.58;;;;;;;18.94;28.41;98124.19;5011462;28;20525;-78
2021/12/19 07:02:48;;;;;;;3.70;2.25;;;;;;;18.26;29.66;98114.19;5005633;28;20030;-79
2021/12/19 07:05:14;;;;;;;3.28;2.42;;;;;;;17.76;30.48;98132.72;5010609;28;20600;-79
2021/12/19 07:07:40;;;;;;;3.10;2.50;;;;;;;18.58;29.39;98126.19;5010333;28;20036;-78
2021/12/19 07:10:08;;;;;;;3.38;2.30;;;;;;;18.00;30.05;98126.44;5008532;28;20033;-78
2021/12/19 07:12:35;;;;;;;3.33;2.40;;;;;;;18.19;29.84;98137.22;5010332;28;20588;-79
2021/12/19 07:15:02;;;;;;;5.00;2.55;;;;;;;17.87;30.15;98120.44;5008380;28;20033;-79
2021/12/19 07:17:29;;;;;;;3.65;2.50;;;;;;;18.26;30.23;98128.88;5017572;28;20374;-79
2021/12/19 07:19:55;;;;;;;3.58;2.60;;;;;;;19.26;28.24;98116.59;5007179;28;20042;-79
2021/12/19 07:22:21;;;;;;;4.70;2.65;;;;;;;18.34;29.83;98113.81;5009305;28;20088;-78
2021/12/19 07:24:47;;;;;;;2.90;2.40;;;;;;;19.13;28.78;98107.09;5009547;28;20124;-79
2021/12/19 07:27:14;;;;;;;4.75;3.28;;;;;;;19.24;28.01;98089.19;5009857;28;20524;-78
2021/12/19 07:29:41;;;;;;;4.78;2.78;;;;;;;18.81;28.85;98084.09;5011343;28;20037;-79
2021/12/19 07:32:07;;;;;;;4.90;3.22;;;;;;;19.58;27.52;98083.16;5010870;28;20433;-79
2021/12/19 07:34:36;;;;;;;2.92;2.70;;;;;;;18.67;28.79;98089.66;5006236;28;20030;-79
2021/12/19 07:37:03;;;;;;;4.82;2.90;;;;;;;18.29;29.41;98074.50;5011156;28;20453;-79
2021/12/19 07:41:58;;;;;;;5.40;3.25;;;;;;;17.04;31.56;98088.25;5008853;28;20053;-78
2021/12/19 07:44:24;;;;;;;4.55;3.08;;;;;;;17.59;30.53;98084.25;5004428;28;20555;-78
2021/12/19 07:46:50;;;;;;;6.45;3.67;;;;;;;17.88;29.98;98080.38;5008461;28;20055;-78
2021/12/19 07:49:16;;;;;;;7.13;4.03;;;;;;;19.01;28.52;98111.09;5009705;28;20125;-77
2021/12/19 07:51:43;;;;;;;5.25;3.40;;;;;;;18.54;29.05;98109.50;5011048;28;20401;-79
2021/12/19 07:54:09;;;;;;;7.53;3.88;;;;;;;19.29;27.95;98105.47;5010400;28;20460;-79
2021/12/19 07:56:35;;;;;;;7.32;3.92;;;;;;;19.47;28.00;98085.16;5010912;28;20508;-78
2021/12/19 07:59:01;;;;;;;5.70;3.30;;;;;;;18.90;28.52;98103.94;5008443;28;20049;-79
2021/12/19 08:01:27;;;;;;;5.88;3.20;;;;;;;18.82;28.94;98110.69;5009031;28;20057;-78
2021/12/19 08:03:53;;;;;;;8.95;4.32;;;;;;;18.70;29.09;98120.22;5010939;28;20038;-79
2021/12/19 08:06:19;;;;;;;8.55;4.03;;;;;;;18.04;30.24;98124.44;5010811;28;20050;-78
2021/12/19 08:08:51;;;;;;;10.07;5.35;;;;;;;18.00;30.24;98126.44;5009631;28;20099;-79
2021/12/19 08:14:01;;;;;;;6.38;4.15;;;;;;;19.08;28.72;98121.41;5006820;28;20045;-79
2021/12/19 08:16:27;;;;;;;8.52;5.05;;;;;;;19.20;28.51;98116.22;5004257;28;20037;-78
2021/12/19 08:18:54;;;;;;;5.47;4.03;;;;;;;17.93;31.03;98123.63;5007903;28;20058;-79
2021/12/19 08:21:20;;;;;;;6.85;4.30;;;;;;;16.90;33.22;98133.34;5010094;28;20041;-79
2021/12/19 08:23:47;;;;;;;8.43;4.55;;;;;;;17.69;31.92;98075.13;5011480;28;20121;-78
2021/12/19 08:26:14;;;;;;;8.95;5.25;;;;;;;17.66;32.35;98131.47;5009805;28;20477;-80
2021/12/19 08:28:40;;;;;;;6.47;4.25;;;;;;;18.07;31.50;98134.78;5011424;28;20091;-79
2021/12/19 08:31:06;;;;;;;7.80;4.32;;;;;;;19.06;30.39;98134.94;5010318;28;20172;-79
2021/12/19 08:33:32;;;;;;;8.98;3.83;;;;;;;18.88;30.45;98134.94;5007859;28;21723;-80
2021/12/19 08:35:59;;;;;;;6.65;4.47;;;;;;;17.94;31.29;98134.38;5006273;28;20413;-80
2021/12/19 08:38:26;;;;;;;6.80;4.78;;;;;;;17.90;32.09;98149.41;5008137;28;20026;-80
2021/12/19 08:40:52;;;;;;;8.32;4.57;;;;;;;17.20;33.59;98158.91;5009966;28;20045;-79
2021/12/19 08:43:19;;;;;;;5.53;4.70;;;;;;;18.57;31.58;98153.22;5011821;28;20069;-80
2021/12/19 08:45:46;;;;;;;7.85;4.47;;;;;;;20.25;28.77;98144.16;5011134;28;20505;-79
2021/12/19 08:48:13;;;;;;;5.97;4.32;;;;;;;19.98;28.91;98147.44;5011582;28;20037;-78
2021/12/19 08:50:40;;;;;;;8.68;5.07;;;;;;;18.39;31.15;98137.66;5011179;28;20042;-79
2021/12/19 08:53:06;;;;;;;7.32;5.38;;;;;;;18.49;31.23;98134.13;5009743;28;20033;-79
2021/12/19 08:55:33;;;;;;;7.10;5.07;;;;;;;18.29;31.71;98152.31;5009764;28;20050;-79
2021/12/19 08:57:59;;;;;;;6.38;4.18;;;;;;;17.91;32.33;98146.25;5011332;28;20496;-79
2021/12/19 09:00:25;;;;;;;7.15;4.20;;;;;;;18.75;30.91;98135.72;5011370;28;20048;-79
2021/12/19 09:02:54;;;;;;;7.20;4.93;;;;;;;19.59;29.55;98132.88;5012792;28;20303;-80
2021/12/19 09:05:22;;;;;;;7.65;5.28;;;;;;;19.54;29.54;98136.06;5011802;28;20046;-80
2021/12/19 09:07:50;;;;;;;7.72;5.32;;;;;;;19.70;29.24;98132.81;5013927;28;20030;-79
2021/12/19 09:10:17;;;;;;;8.52;5.50;;;;;;;20.74;27.96;98117.94;5015627;28;20033;-79
2021/12/19 09:12:44;;;;;;;9.55;5.93;;;;;;;20.79;27.78;98117.50;5005955;28;20117;-79
2021/12/19 09:15:10;;;;;;;9.98;5.13;;;;;;;20.14;28.91;98121.09;5005455;28;20038;-78
2021/12/19 09:17:36;;;;;;;10.32;5.68;;;;;;;20.54;27.78;98106.50;5011255;28;20387;-79
2021/12/19 09:20:03;;;;;;;12.45;5.32;;;;;;;20.08;28.59;98112.34;5006944;28;20504;-78
2021/12/19 09:22:29;;;;;;;8.35;5.20;;;;;;;21.37;26.90;98102.63;5013854;28;20548;-78
2021/12/19 09:24:55;;;;;;;8.57;4.93;;;;;;;21.28;26.97;98106.69;5011531;28;20453;-78
2021/12/19 09:27:21;;;;;;;9.30;5.18;;;;;;;21.69;26.19;98094.66;5007527;28;20033;-80
2021/12/19 09:29:48;;;;;;;7.05;3.92;;;;;;;20.19;28.11;98104.72;5012140;28;20139;-79
2021/12/19 09:32:14;;;;;;;6.30;4.00;;;;;;;20.07;28.65;98085.66;5009407;28;20030;-79
2021/12/19 09:34:40;;;;;;;6.35;4.00;;;;;;;21.31;27.21;98093.88;5011743;28;20050;-79
2021/12/19 09:37:06;;;;;;;6.38;4.53;;;;;;;19.50;30.05;98087.94;5013776;28;20026;-79
2021/12/19 09:39:33;;;;;;;7.68;5.65;;;;;;;20.60;27.89;98085.38;5011703;28;20073;-79
2021/12/19 09:42:06;;;;;;;8.45;5.35;;;;;;;19.90;28.59;98081.00;5011769;28;20033;-79
2021/12/19 09:44:34;;;;;;;6.68;4.68;;;;;;;20.03;29.19;98082.13;5010087;28;20124;-79
2021/12/19 09:47:01;;;;;;;8.05;4.55;;;;;;;20.31;28.30;98081.97;5010267;28;20502;-80
2021/12/19 09:49:27;;;;;;;8.15;4.97;;;;;;;19.48;29.25;98062.50;5012682;28;20046;-80
2021/12/19 09:51:53;;;;;;;8.80;5.05;;;;;;;19.38;29.86;98068.88;5010580;28;20049;-79
2021/12/19 09:54:20;;;;;;;8.05;4.88;;;;;;;19.99;28.80;98057.06;5010324;28;20043;-79
2021/12/19 09:56:48;;;;;;;7.63;4.13;;;;;;;19.76;29.39;98056.00;5010497;28;21357;-79
2021/12/19 09:59:19;;;;;;;6.90;5.10;;;;;;;19.24;30.01;98046.63;5009414;28;20040;-79
2021/12/19 10:01:46;;;;;;;6.50;4.88;;;;;;;17.60;33.04;98063.59;5005002;28;20041;-79
2021/12/19 10:04:37;;;;;;;8.05;5.32;;;;;;;19.36;30.36;98048.22;5009385;28;20512;-80
2021/12/19 10:07:13;;;;;;;7.78;5.45;;;;;;;20.25;28.99;98047.38;5007996;28;20053;-80
2021/12/19 10:10:01;;;;;;;12.40;5.65;;;;;;;19.46;29.85;98037.06;5008820;28;20060;-80
2021/12/19 10:15:29;;;;;;;9.25;5.13;;;;;;;20.90;28.02;98034.47;5009175;28;20501;-80
2021/12/19 10:18:16;;;;;;;6.72;4.60;;;;;;;20.47;28.18;98031.25;5009908;28;20018;-80
2021/12/19 10:20:49;;;;;;;9.57;4.15;;;;;;;19.79;29.44;98027.34;5009334;28;20026;-80
2021/12/19 10:23:27;;;;;;;9.38;4.80;;;;;;;19.18;29.98;98021.19;5006423;28;20096;-81
2021/12/19 10:26:00;;;;;;;8.80;4.25;;;;;;;18.96;30.97;98013.31;5010438;28;20499;-81
2021/12/19 10:28:27;;;;;;;6.88;4.20;;;;;;;20.03;29.27;98009.66;5006720;28;20029;-81
2021/12/19 10:30:54;;;;;;;8.38;4.97;;;;;;;19.25;30.25;97993.34;5004386;28;20041;-81
2021/12/19 10:33:23;;;;;;;12.57;5.60;;;;;;;19.25;30.27;97984.22;5002998;28;20064;-80
2021/12/19 10:36:01;;;;;;;6.78;4.53;;;;;;;20.16;29.07;97990.47;5002607;28;20040;-78
2021/12/19 10:38:31;;;;;;;9.00;5.07;;;;;;;20.13;29.01;97996.84;5000815;28;20060;-80
2021/12/19 10:40:59;;;;;;;4.30;3.65;;;;;;;21.59;27.29;97976.22;5006261;28;20021;-81
2021/12/19 10:43:29;;;;;;;6.60;5.05;;;;;;;20.36;28.83;97972.81;5009550;28;20030;-81
2021/12/19 10:46:01;;;;;;;7.93;4.75;;;;;;;21.52;27.32;97959.56;5003802;28;20086;-80
2021/12/19 10:48:42;;;;;;;6.78;4.55;;;;;;;20.91;27.97;97960.72;5004468;28;20038;-81
2021/12/19 10:51:17;;;;;;;5.88;4.00;;;;;;;20.62;28.78;97972.16;5018297;28;20429;-83
2021/12/19 10:53:49;;;;;;;4.88;3.75;;;;;;;21.63;27.62;97965.81;5004869;28;20030;-83
2021/12/19 10:56:17;;;;;;;6.53;4.10;;;;;;;20.78;28.15;97945.69;5006290;28;20035;-81
2021/12/19 10:58:55;;;;;;;7.57;4.45;;;;;;;20.82;28.34;97949.25;5005290;28;20037;-80
2021/12/19 11:01:30;;;;;;;7.95;4.80;;;;;;;20.09;28.92;97957.06;5002552;28;20042;-81
2021/12/19 11:04:12;;;;;;;7.18;4.20;;;;;;;21.63;27.11;97898.78;5007785;28;20367;-81
2021/12/19 11:06:42;;;;;;;7.90;4.18;;;;;;;20.21;29.29;97945.44;5005645;28;20038;-81
2021/12/19 11:09:20;;;;;;;7.82;5.07;;;;;;;20.14;28.89;97937.13;5010994;28;20029;-81
2021/12/19 11:11:58;;;;;;;6.20;4.57;;;;;;;21.12;27.59;97943.75;5004615;28;20033;-81
2021/12/19 11:14:26;;;;;;;6.63;4.55;;;;;;;20.16;28.70;97945.88;5006983;28;20025;-82
2021/12/19 11:16:55;;;;;;;7.60;4.93;;;;;;;20.30;28.68;97934.63;5009814;28;20030;-82
2021/12/19 11:19:22;;;;;;;9.35;5.45;;;;;;;19.57;30.10;97931.97;5004719;28;20030;-81
2021/12/19 11:21:49;;;;;;;8.45;4.85;;;;;;;20.09;29.49;97927.22;5006145;28;20438;-81
2021/12/19 11:24:17;;;;;;;6.35;4.68;;;;;;;20.42;28.90;97920.19;5004625;28;20030;-81
2021/12/19 11:26:47;;;;;;;7.82;4.88;;;;;;;21.36;27.62;97906.31;5008814;28;20386;-82
2021/12/19 11:29:14;;;;;;;11.73;5.65;;;;;;;20.77;28.13;97908.63;5007326;28;20046;-81
2021/12/19 11:31:45;;;;;;;7.47;4.65;;;;;;;20.87;28.01;97902.13;5005694;28;20464;-82
2021/12/19 11:34:16;;;;;;;;;;;;;;;21.30;27.60;97911.59;5011198;28;20077;-81
2021/12/19 11:36:48;;;;;;;6.78;4.22;;;;;;;21.72;26.83;97901.03;5005320;28;19956;-82
2021/12/19 11:39:16;;;;;;;5.70;2.95;;;;;;;20.52;28.42;97892.16;5003091;28;20034;-82
2021/12/19 11:42:15;;;;;;;5.97;3.20;;;;;;;19.83;29.74;97892.41;5010375;28;20482;-81
2021/12/19 11:45:36;;;;;;;5.07;3.13;;;;;;;19.44;30.21;97891.84;5003524;28;20375;-80
2021/12/19 11:47:52;;;;;;;6.22;2.78;;;;;;;19.21;31.04;97895.16;4997186;28;20041;-81
2021/12/19 11:50:28;;;;;;;6.25;3.42;;;;;;;18.68;31.38;97869.56;5010953;28;20038;-82
2021/12/19 11:52:57;;;;;;;5.85;3.47;;;;;;;18.38;32.23;97869.22;5008899;28;20116;-81
2021/12/19 11:55:48;;;;;;;9.27;4.40;;;;;;;19.00;31.39;97859.09;5009618;28;20572;-81
2021/12/19 11:58:44;;;;;;;8.15;3.83;;;;;;;20.25;29.35;97855.03;5001914;28;20053;-81
2021/12/19 12:01:13;;;;;;;6.63;3.55;;;;;;;20.75;28.40;97844.06;5000053;28;20132;-81
2021/12/19 12:03:49;;;;;;;4.65;3.80;;;;;;;20.47;28.83;97845.22;5001043;28;20033;-80
2021/12/19 12:06:19;;;;;;;8.20;5.07;;;;;;;20.68;28.26;97849.75;5000135;28;20078;-80
2021/12/19 12:09:07;;;;;;;8.15;4.50;;;;;;;21.29;27.66;97842.19;5002258;28;20033;-80
2021/12/19 12:11:35;;;;;;;5.85;3.92;;;;;;;21.98;26.70;97831.13;5007801;28;20041;-79
2021/12/19 12:14:19;;;;;;;4.93;3.30;;;;;;;20.88;27.74;97842.34;5000279;28;20034;-80
2021/12/19 12:16:57;;;;;;;8.05;5.43;;;;;;;20.13;28.90;97826.84;5005685;28;20038;-79
2021/12/19 12:19:43;;;;;;;8.50;4.55;;;;;;;19.82;29.47;97832.28;5001806;28;20393;-79
2021/12/19 12:22:40;;;;;;;6.60;3.72;;;;;;;19.64;29.71;97831.66;5004570;28;20040;-79
2021/12/19 12:25:19;;;;;;;4.25;2.53;;;;;;;18.41;31.98;97835.84;5005260;28;20036;-80
2021/12/19 12:27:47;;;;;;;6.70;2.90;;;;;;;18.77;31.19;97805.16;5005286;28;20037;-79
2021/12/19 12:30:28;;;;;;;4.50;2.30;;;;;;;17.20;33.18;97827.97;5002878;28;20156;-79
2021/12/19 12:32:56;;;;;;;2.63;1.48;;;;;;;17.13;34.04;97823.22;5005982;28;20509;-79
2021/12/19 12:35:25;;;;;;;1.98;1.80;;;;;;;17.66;33.13;97831.63;5007108;28;20048;-79
2021/12/19 12:37:54;;;;;;;5.13;1.98;;;;;;;18.26;31.62;97819.63;5006222;28;20050;-80
2021/12/19 12:43:10;;;;;;;1.67;1.20;;;;;;;19.72;29.01;97805.31;5008013;28;20042;-80
2021/12/19 12:46:15;;;;;;;2.60;1.20;;;;;;;20.63;27.45;97805.59;5007609;28;20030;-79
2021/12/19 12:49:00;;;;;;;1.98;1.23;;;;;;;20.29;28.55;97797.22;5021037;28;20033;-79